createdAt,value
2022-10-08T00:01:21.295Z,16.60
2022-10-08T00:04:24.508Z,16.57
2022-10-08T00:07:27.718Z,16.53
2022-10-08T00:10:33.097Z,16.53
2022-10-08T00:13:41.846Z,16.66
2022-10-08T00:16:45.025Z,16.88
2022-10-08T00:19:48.288Z,16.85
2022-10-08T00:22:51.586Z,16.85
2022-10-08T00:25:56.223Z,16.80
2022-10-08T00:29:01.749Z,16.89
2022-10-08T00:32:05.039Z,17.04
2022-10-08T00:35:08.726Z,17.08
2022-10-08T00:38:11.912Z,17.07
2022-10-08T00:41:20.875Z,17.20
2022-10-08T00:45:00.657Z,16.99
2022-10-08T00:48:05.393Z,16.80
2022-10-08T00:51:09.583Z,16.90
2022-10-08T00:54:14.464Z,16.64
2022-10-08T00:57:19.826Z,16.46
2022-10-08T01:00:25.586Z,16.40
2022-10-08T01:03:28.789Z,16.57
2022-10-08T01:06:39.105Z,16.86
2022-10-08T01:09:48.003Z,16.89
2022-10-08T01:13:05.562Z,16.97
2022-10-08T01:16:19.740Z,17.16
2022-10-08T01:19:49.100Z,16.76
2022-10-08T01:23:10.265Z,16.94
2022-10-08T01:26:37.229Z,17.05
2022-10-08T01:29:47.689Z,16.81
2022-10-08T01:32:56.334Z,17.04
2022-10-08T01:36:04.296Z,17.10
2022-10-08T01:39:11.324Z,17.13
2022-10-08T01:42:15.250Z,17.16
2022-10-08T01:45:25.121Z,16.86
2022-10-08T01:48:34.141Z,16.90
2022-10-08T01:51:41.866Z,17.01
2022-10-08T01:54:49.878Z,17.12
2022-10-08T01:57:57.538Z,17.18
2022-10-08T02:01:11.630Z,17.02
2022-10-08T02:04:32.547Z,17.05
2022-10-08T02:07:38.977Z,16.86
2022-10-08T02:10:42.820Z,16.99
2022-10-08T02:13:46.538Z,16.97
2022-10-08T02:16:55.879Z,16.69
2022-10-08T02:20:05.844Z,16.87
2022-10-08T02:23:14.761Z,16.77
2022-10-08T02:26:23.386Z,16.85
2022-10-08T02:29:33.015Z,16.73
2022-10-08T02:32:48.943Z,16.64
2022-10-08T02:35:54.848Z,16.75
2022-10-08T02:39:04.034Z,16.72
2022-10-08T02:42:12.226Z,16.47
2022-10-08T02:45:19.581Z,16.38
2022-10-08T02:48:29.393Z,16.54
2022-10-08T02:51:35.431Z,16.55
2022-10-08T02:54:41.423Z,16.27
2022-10-08T02:57:47.661Z,16.15
2022-10-08T03:00:56.031Z,16.27
2022-10-08T03:04:05.564Z,16.17
2022-10-08T03:07:10.382Z,15.74
2022-10-08T03:10:14.443Z,16.14
2022-10-08T03:13:19.574Z,16.21
2022-10-08T03:16:25.502Z,16.38
2022-10-08T03:19:30.372Z,16.23
2022-10-08T03:22:35.003Z,16.20
2022-10-08T03:25:38.214Z,16.23
2022-10-08T03:28:41.489Z,16.30
2022-10-08T03:31:44.765Z,16.26
2022-10-08T03:34:49.368Z,16.06
2022-10-08T03:37:54.046Z,15.76
2022-10-08T03:41:00.252Z,15.75
2022-10-08T03:44:03.494Z,15.85
2022-10-08T03:47:06.904Z,15.84
2022-10-08T03:50:11.727Z,15.76
2022-10-08T03:53:15.015Z,15.72
2022-10-08T03:56:20.168Z,15.43
2022-10-08T03:59:23.612Z,15.54
2022-10-08T04:02:27.006Z,15.39
2022-10-08T04:05:31.796Z,15.37
2022-10-08T04:08:35.662Z,15.04
2022-10-08T04:11:39.163Z,15.37
2022-10-08T04:14:42.424Z,15.08
2022-10-08T04:17:45.804Z,14.41
2022-10-08T04:20:50.435Z,14.95
2022-10-08T04:23:53.675Z,14.45
2022-10-08T04:26:57.084Z,14.67
2022-10-08T04:30:00.269Z,14.85
2022-10-08T04:33:03.547Z,14.84
2022-10-08T04:36:11.151Z,14.65
2022-10-08T04:39:14.364Z,14.82
2022-10-08T04:42:17.759Z,14.44
2022-10-08T04:45:20.950Z,14.55
2022-10-08T04:48:24.174Z,14.34
2022-10-08T04:51:29.431Z,14.40
2022-10-08T04:54:32.706Z,14.23
2022-10-08T04:57:35.868Z,14.34
2022-10-08T05:00:39.169Z,14.16
2022-10-08T05:03:43.993Z,14.25
2022-10-08T05:06:48.571Z,14.58
2022-10-08T05:09:51.834Z,14.86
2022-10-08T05:12:56.267Z,14.93
2022-10-08T05:16:04.587Z,14.94
2022-10-08T05:19:07.951Z,14.90
2022-10-08T05:22:12.610Z,14.97
2022-10-08T05:25:15.971Z,15.07
2022-10-08T05:28:19.209Z,15.37
2022-10-08T05:31:22.527Z,15.37
2022-10-08T05:34:26.191Z,15.44
2022-10-08T05:37:30.761Z,15.88
2022-10-08T05:40:34.041Z,15.94
2022-10-08T05:43:37.335Z,16.07
2022-10-08T05:46:40.990Z,16.01
2022-10-08T05:49:44.279Z,16.23
2022-10-08T05:52:49.290Z,16.85
2022-10-08T05:56:01.084Z,17.27
2022-10-08T05:59:04.322Z,17.36
2022-10-08T06:02:08.147Z,17.41
2022-10-08T06:05:11.488Z,17.85
2022-10-08T06:08:16.090Z,18.34
2022-10-08T06:11:19.354Z,18.68
2022-10-08T06:14:24.389Z,19.04
2022-10-08T06:17:27.569Z,19.17
2022-10-08T06:20:32.163Z,19.43
2022-10-08T06:23:37.835Z,19.74
2022-10-08T06:26:43.405Z,19.83
2022-10-08T06:29:46.649Z,19.95
2022-10-08T06:32:50.033Z,20.33
2022-10-08T06:35:53.836Z,20.64
2022-10-08T06:38:59.598Z,20.74
2022-10-08T06:42:02.784Z,20.88
2022-10-08T06:45:13.186Z,20.79
2022-10-08T06:48:16.455Z,21.17
2022-10-08T06:51:20.652Z,21.15
2022-10-08T06:54:27.488Z,21.17
2022-10-08T06:57:30.970Z,21.37
2022-10-08T07:00:34.574Z,21.47
2022-10-08T07:03:38.237Z,21.54
2022-10-08T07:06:41.470Z,21.63
2022-10-08T07:09:46.050Z,21.94
2022-10-08T07:12:49.634Z,22.12
2022-10-08T07:15:53.423Z,22.31
2022-10-08T07:18:58.943Z,22.45
2022-10-08T07:22:02.355Z,22.93
2022-10-08T07:25:07.541Z,23.09
2022-10-08T07:28:10.823Z,23.29
2022-10-08T07:31:16.199Z,23.50
2022-10-08T07:34:19.519Z,23.53
2022-10-08T07:37:22.749Z,23.75
2022-10-08T07:40:27.428Z,24.13
2022-10-08T07:43:30.669Z,23.95
2022-10-08T07:46:35.601Z,24.07
2022-10-08T07:49:38.867Z,23.98
2022-10-08T07:52:42.120Z,24.38
2022-10-08T07:55:46.834Z,24.18
2022-10-08T07:58:50.895Z,24.36
2022-10-08T08:01:54.241Z,24.45
2022-10-08T08:04:58.675Z,24.84
2022-10-08T08:08:01.891Z,24.91
2022-10-08T08:11:08.689Z,24.60
2022-10-08T08:14:12.047Z,25.35
2022-10-08T08:17:15.303Z,25.64
2022-10-08T08:20:18.498Z,25.74
2022-10-08T08:23:21.703Z,25.59
2022-10-08T08:26:28.862Z,25.86
2022-10-08T08:29:32.312Z,26.10
2022-10-08T08:32:35.499Z,26.28
2022-10-08T08:35:38.757Z,26.50
2022-10-08T08:38:42.046Z,26.49
2022-10-08T08:42:14.760Z,26.56
2022-10-08T08:45:46.828Z,26.55
2022-10-08T08:48:54.554Z,26.87
2022-10-08T08:51:59.573Z,27.02
2022-10-08T08:55:03.029Z,26.75
2022-10-08T08:58:27.263Z,26.66
2022-10-08T09:01:34.889Z,26.66
2022-10-08T09:04:45.480Z,26.96
2022-10-08T09:07:52.911Z,26.59
2022-10-08T09:10:58.437Z,26.77
2022-10-08T09:14:16.799Z,26.99
2022-10-08T09:17:21.776Z,26.82
2022-10-08T09:20:26.473Z,27.35
2022-10-08T09:23:29.684Z,27.23
2022-10-08T09:26:35.076Z,26.99
2022-10-08T09:29:39.800Z,27.10
2022-10-08T09:32:43.099Z,26.92
2022-10-08T09:35:49.834Z,27.36
2022-10-08T09:38:59.719Z,27.65
2022-10-08T09:42:14.174Z,27.66
2022-10-08T09:45:35.286Z,27.77
2022-10-08T09:48:39.671Z,27.99
2022-10-08T09:51:43.675Z,27.45
2022-10-08T09:54:49.862Z,27.73
2022-10-08T09:57:56.715Z,27.76
2022-10-08T10:01:07.716Z,27.44
2022-10-08T10:04:20.962Z,27.69
2022-10-08T10:07:24.552Z,27.65
2022-10-08T10:10:33.000Z,27.66
2022-10-08T10:13:39.017Z,27.88
2022-10-08T10:16:47.193Z,28.12
2022-10-08T10:19:55.089Z,28.46
2022-10-08T10:23:06.502Z,28.55
2022-10-08T10:26:14.468Z,28.80
2022-10-08T10:29:21.328Z,27.83
2022-10-08T10:32:32.317Z,27.87
2022-10-08T10:35:46.842Z,28.69
2022-10-08T10:38:57.114Z,28.65
2022-10-08T10:42:08.499Z,29.03
2022-10-08T10:45:21.535Z,28.99
2022-10-08T10:48:26.290Z,28.44
2022-10-08T10:51:53.464Z,28.38
2022-10-08T10:55:09.577Z,28.10
2022-10-08T10:58:32.259Z,27.97
2022-10-08T11:01:43.815Z,28.07
2022-10-08T11:05:01.511Z,28.34
2022-10-08T11:08:12.948Z,28.09
2022-10-08T11:11:32.258Z,28.10
2022-10-08T11:14:45.235Z,28.16
2022-10-08T11:18:15.942Z,28.18
2022-10-08T11:21:36.431Z,28.09
2022-10-08T11:25:01.658Z,28.42
2022-10-08T11:28:18.334Z,28.21
2022-10-08T11:31:32.858Z,28.36
2022-10-08T11:34:38.629Z,28.29
2022-10-08T11:37:50.233Z,27.67
2022-10-08T11:40:59.994Z,28.12
2022-10-08T11:44:05.548Z,27.82
2022-10-08T11:47:37.547Z,28.22
2022-10-08T11:50:41.100Z,28.30
2022-10-08T11:54:00.753Z,27.91
2022-10-08T11:57:14.848Z,27.97
2022-10-08T12:00:33.551Z,28.29
2022-10-08T12:03:39.216Z,28.24
2022-10-08T12:06:42.590Z,28.20
2022-10-08T12:10:34.063Z,28.38
2022-10-08T12:13:38.642Z,28.74
2022-10-08T12:17:09.847Z,28.64
2022-10-08T12:20:22.333Z,28.79
2022-10-08T12:23:39.869Z,28.45
2022-10-08T12:27:23.674Z,28.73
2022-10-08T12:30:48.339Z,28.84
2022-10-08T12:34:04.021Z,28.51
2022-10-08T12:37:16.609Z,28.39
2022-10-08T12:40:31.824Z,28.38
2022-10-08T12:43:42.342Z,28.72
2022-10-08T12:46:55.968Z,28.76
2022-10-08T12:50:07.047Z,28.58
2022-10-08T12:53:15.052Z,27.85
2022-10-08T12:56:23.357Z,28.08
2022-10-08T12:59:31.586Z,27.95
2022-10-08T13:02:41.176Z,27.83
2022-10-08T13:05:45.162Z,27.50
2022-10-08T13:08:50.826Z,27.74
2022-10-08T13:11:58.235Z,27.46
2022-10-08T13:15:09.041Z,27.41
2022-10-08T13:18:23.163Z,27.78
2022-10-08T13:21:38.122Z,27.49
2022-10-08T13:24:42.710Z,27.86
2022-10-08T13:27:46.297Z,27.57
2022-10-08T13:30:52.160Z,27.39
2022-10-08T13:33:56.811Z,27.67
2022-10-08T13:37:03.127Z,27.51
2022-10-08T13:40:19.569Z,27.86
2022-10-08T13:43:23.406Z,27.75
2022-10-08T13:46:26.714Z,27.66
2022-10-08T13:49:33.262Z,27.69
2022-10-08T13:52:37.094Z,27.54
2022-10-08T13:55:44.655Z,27.52
2022-10-08T13:58:47.857Z,27.71
2022-10-08T14:01:51.793Z,27.83
2022-10-08T14:04:56.456Z,27.69
2022-10-08T14:08:04.175Z,27.68
2022-10-08T14:11:07.656Z,27.70
2022-10-08T14:14:13.289Z,27.65
2022-10-08T14:17:16.532Z,27.38
2022-10-08T14:20:21.296Z,26.97
2022-10-08T14:23:24.541Z,26.77
2022-10-08T14:26:28.652Z,26.93
2022-10-08T14:29:32.932Z,26.82
2022-10-08T14:32:36.207Z,26.57
2022-10-08T14:35:40.837Z,26.68
2022-10-08T14:38:44.271Z,26.67
2022-10-08T14:41:47.528Z,26.80
2022-10-08T14:44:52.013Z,26.66
2022-10-08T14:47:55.137Z,26.72
2022-10-08T14:51:00.060Z,26.50
2022-10-08T14:54:03.303Z,26.44
2022-10-08T14:57:06.498Z,26.49
2022-10-08T15:00:10.769Z,26.43
2022-10-08T15:03:13.993Z,26.15
2022-10-08T15:06:18.584Z,25.97
2022-10-08T15:09:21.829Z,25.69
2022-10-08T15:12:25.032Z,25.40
2022-10-08T15:15:28.258Z,25.40
2022-10-08T15:18:32.750Z,25.41
2022-10-08T15:21:37.692Z,25.29
2022-10-08T15:24:41.426Z,25.22
2022-10-08T15:27:44.844Z,25.14
2022-10-08T15:30:48.131Z,24.97
2022-10-08T15:33:52.914Z,24.71
2022-10-08T15:36:57.502Z,24.59
2022-10-08T15:40:00.771Z,24.42
2022-10-08T15:43:04.039Z,24.41
2022-10-08T15:46:11.264Z,24.29
2022-10-08T15:49:14.930Z,24.11
2022-10-08T15:52:21.277Z,24.10
2022-10-08T15:55:24.512Z,24.00
2022-10-08T15:58:49.545Z,23.81
2022-10-08T16:01:50.894Z,23.82
2022-10-08T16:04:54.260Z,23.78
2022-10-08T16:07:58.842Z,23.77
2022-10-08T16:11:11.675Z,23.61
2022-10-08T16:14:16.363Z,23.46
2022-10-08T16:17:19.588Z,23.41
2022-10-08T16:20:22.875Z,23.26
2022-10-08T16:23:27.477Z,23.32
2022-10-08T16:26:32.343Z,23.15
2022-10-08T16:29:35.697Z,23.19
2022-10-08T16:32:38.888Z,23.22
2022-10-08T16:35:42.072Z,23.17
2022-10-08T16:38:46.701Z,23.08
2022-10-08T16:41:50.531Z,23.02
2022-10-08T16:44:53.754Z,23.15
2022-10-08T16:47:56.924Z,23.10
2022-10-08T16:51:03.749Z,22.95
2022-10-08T16:54:11.522Z,22.96
2022-10-08T16:57:14.684Z,22.89
2022-10-08T17:00:18.788Z,22.82
2022-10-08T17:03:22.863Z,22.93
2022-10-08T17:06:27.805Z,22.94
2022-10-08T17:09:32.737Z,22.76
2022-10-08T17:12:35.940Z,22.88
2022-10-08T17:15:39.156Z,22.85
2022-10-08T17:18:44.290Z,22.71
2022-10-08T17:21:47.483Z,22.60
2022-10-08T17:24:52.174Z,22.55
2022-10-08T17:27:55.300Z,22.58
2022-10-08T17:31:00.189Z,22.44
2022-10-08T17:34:05.232Z,22.41
2022-10-08T17:37:08.490Z,22.41
2022-10-08T17:40:13.116Z,22.35
2022-10-08T17:43:16.362Z,22.24
2022-10-08T17:46:22.388Z,22.21
2022-10-08T17:49:25.640Z,22.21
2022-10-08T17:52:28.829Z,21.62
2022-10-08T17:55:33.713Z,21.28
2022-10-08T17:58:37.155Z,21.17
2022-10-08T18:01:44.820Z,20.97
2022-10-08T18:04:48.688Z,20.95
2022-10-08T18:07:51.863Z,21.12
2022-10-08T18:10:56.420Z,20.96
2022-10-08T18:14:00.089Z,20.77
2022-10-08T18:17:06.258Z,20.83
2022-10-08T18:20:11.750Z,20.95
2022-10-08T18:23:14.962Z,21.01
2022-10-08T18:26:21.438Z,21.19
2022-10-08T18:29:24.848Z,20.85
2022-10-08T18:32:28.079Z,20.82
2022-10-08T18:35:31.338Z,20.75
2022-10-08T18:38:34.537Z,20.81
2022-10-08T18:41:41.380Z,20.52
2022-10-08T18:44:44.552Z,20.59
2022-10-08T18:47:48.348Z,20.86
2022-10-08T18:50:51.566Z,20.62
2022-10-08T18:53:56.309Z,20.60
2022-10-08T18:57:01.104Z,20.58
2022-10-08T19:00:04.979Z,20.46
2022-10-08T19:03:08.180Z,20.42
2022-10-08T19:06:11.778Z,20.49
2022-10-08T19:09:15.904Z,20.62
2022-10-08T19:12:20.447Z,20.50
2022-10-08T19:15:23.679Z,20.56
2022-10-08T19:18:26.977Z,20.43
2022-10-08T19:21:31.561Z,20.52
2022-10-08T19:24:38.503Z,20.27
2022-10-08T19:27:45.388Z,20.14
2022-10-08T19:30:48.609Z,20.27
2022-10-08T19:33:52.943Z,20.26
2022-10-08T19:36:56.224Z,20.24
2022-10-08T19:39:59.477Z,20.31
2022-10-08T19:43:04.327Z,20.21
2022-10-08T19:46:08.514Z,20.11
2022-10-08T19:49:12.388Z,20.23
2022-10-08T19:52:16.066Z,20.12
2022-10-08T19:55:19.330Z,20.10
2022-10-08T19:58:23.970Z,20.14
2022-10-08T20:01:29.712Z,20.09
2022-10-08T20:04:33.225Z,19.96
2022-10-08T20:07:36.489Z,19.95
2022-10-08T20:10:41.111Z,20.05
2022-10-08T20:13:47.611Z,19.84
2022-10-08T20:16:50.787Z,20.09
2022-10-08T20:20:01.609Z,19.96
2022-10-08T20:23:17.140Z,20.13
2022-10-08T20:26:23.059Z,19.94
2022-10-08T20:29:30.953Z,19.91
2022-10-08T20:32:34.499Z,20.16
2022-10-08T20:35:37.733Z,20.01
2022-10-08T20:38:42.192Z,20.18
2022-10-08T20:41:45.782Z,20.08
2022-10-08T20:44:50.437Z,20.45
2022-10-08T20:47:53.567Z,20.63
2022-10-08T20:51:02.993Z,20.55
2022-10-08T20:54:08.651Z,20.61
2022-10-08T20:57:11.879Z,20.72
2022-10-08T21:00:16.956Z,20.74
2022-10-08T21:03:20.269Z,20.61
2022-10-08T21:06:25.893Z,20.16
2022-10-08T21:09:29.153Z,20.12
2022-10-08T21:12:33.412Z,19.96
2022-10-08T21:15:37.991Z,20.06
2022-10-08T21:18:41.518Z,19.64
2022-10-08T21:21:44.679Z,19.67
2022-10-08T21:24:47.880Z,19.70
2022-10-08T21:27:51.020Z,19.42
2022-10-08T21:30:55.855Z,19.51
2022-10-08T21:33:59.577Z,19.70
2022-10-08T21:37:03.209Z,19.66
2022-10-08T21:40:07.182Z,19.61
2022-10-08T21:43:10.391Z,19.53
2022-10-08T21:46:16.647Z,19.43
2022-10-08T21:49:21.107Z,19.16
2022-10-08T21:52:24.334Z,19.04
2022-10-08T21:55:27.781Z,19.11
2022-10-08T21:58:32.775Z,19.00
2022-10-08T22:01:39.377Z,18.96
2022-10-08T22:04:42.704Z,19.01
2022-10-08T22:07:45.883Z,18.89
2022-10-08T22:10:49.508Z,19.02
2022-10-08T22:13:53.359Z,18.85
2022-10-08T22:16:58.047Z,18.63
2022-10-08T22:20:01.572Z,18.57
2022-10-08T22:23:04.853Z,18.59
2022-10-08T22:26:10.083Z,18.87
2022-10-08T22:29:13.778Z,18.75
2022-10-08T22:32:18.600Z,18.91
2022-10-08T22:35:21.896Z,18.70
2022-10-08T22:38:25.074Z,18.28
2022-10-08T22:41:30.113Z,18.61
2022-10-08T22:44:33.325Z,18.52
2022-10-08T22:47:37.859Z,18.46
2022-10-08T22:50:41.102Z,18.32
2022-10-08T22:53:44.862Z,18.35
2022-10-08T22:56:48.090Z,18.06
2022-10-08T22:59:51.239Z,18.27
2022-10-08T23:02:55.947Z,18.15
2022-10-08T23:06:07.940Z,18.08
2022-10-08T23:09:13.529Z,18.02
2022-10-08T23:12:16.709Z,17.76
2022-10-08T23:15:19.930Z,17.81
2022-10-08T23:18:24.595Z,17.71
2022-10-08T23:21:29.000Z,17.50
2022-10-08T23:24:32.272Z,17.51
2022-10-08T23:27:35.436Z,17.13
2022-10-08T23:30:43.359Z,17.38
2022-10-08T23:33:50.211Z,17.46
2022-10-08T23:36:53.410Z,17.45
2022-10-08T23:39:58.031Z,17.50
2022-10-08T23:43:01.361Z,17.23
2022-10-08T23:46:04.836Z,17.33
2022-10-08T23:49:09.713Z,17.54
2022-10-08T23:52:13.046Z,17.55
2022-10-08T23:55:16.332Z,17.61
2022-10-08T23:58:19.787Z,17.23
